sensor_id;sensor_type;location;lat;lon;timestamp;P1;durP1;ratioP1;P2;durP2;ratioP2
20042;SDS011;10182;52.896;6.496;2023-05-03T00:00:53;4.03;;;2.50;;
20042;SDS011;10182;52.896;6.496;2023-05-03T00:05:56;3.33;;;2.70;;
20042;SDS011;10182;52.896;6.496;2023-05-03T00:10:58;7.13;;;3.57;;
20042;SDS011;10182;52.896;6.496;2023-05-03T00:16:00;3.17;;;2.67;;
20042;SDS011;10182;52.896;6.496;2023-05-03T00:21:03;5.23;;;3.00;;
20042;SDS011;10182;52.896;6.496;2023-05-03T00:26:05;5.37;;;3.07;;
20042;SDS011;10182;52.896;6.496;2023-05-03T00:31:06;3.83;;;3.00;;
20042;SDS011;10182;52.896;6.496;2023-05-03T00:36:11;4.53;;;2.63;;
20042;SDS011;10182;52.896;6.496;2023-05-03T00:41:14;4.80;;;3.83;;
20042;SDS011;10182;52.896;6.496;2023-05-03T00:46:15;8.70;;;3.50;;
20042;SDS011;10182;52.896;6.496;2023-05-03T00:51:19;7.50;;;3.83;;
20042;SDS011;10182;52.896;6.496;2023-05-03T00:56:21;4.13;;;2.93;;
20042;SDS011;10182;52.896;6.496;2023-05-03T01:01:23;5.03;;;3.33;;
20042;SDS011;10182;52.896;6.496;2023-05-03T01:06:30;4.90;;;3.43;;
20042;SDS011;10182;52.896;6.496;2023-05-03T01:11:43;6.33;;;3.90;;
20042;SDS011;10182;52.896;6.496;2023-05-03T01:16:48;6.40;;;4.17;;
20042;SDS011;10182;52.896;6.496;2023-05-03T01:21:56;6.07;;;4.40;;
20042;SDS011;10182;52.896;6.496;2023-05-03T01:27:05;9.03;;;4.27;;
20042;SDS011;10182;52.896;6.496;2023-05-03T01:32:10;6.80;;;4.80;;
20042;SDS011;10182;52.896;6.496;2023-05-03T01:37:18;6.77;;;4.70;;
20042;SDS011;10182;52.896;6.496;2023-05-03T01:42:23;5.77;;;3.90;;
20042;SDS011;10182;52.896;6.496;2023-05-03T01:47:26;6.07;;;4.40;;
20042;SDS011;10182;52.896;6.496;2023-05-03T01:52:28;9.30;;;4.83;;
20042;SDS011;10182;52.896;6.496;2023-05-03T01:57:31;4.90;;;4.33;;
20042;SDS011;10182;52.896;6.496;2023-05-03T02:02:33;10.00;;;4.67;;
20042;SDS011;10182;52.896;6.496;2023-05-03T02:07:35;7.20;;;4.60;;
20042;SDS011;10182;52.896;6.496;2023-05-03T02:12:38;7.97;;;4.07;;
20042;SDS011;10182;52.896;6.496;2023-05-03T02:17:41;8.03;;;4.03;;
20042;SDS011;10182;52.896;6.496;2023-05-03T02:22:44;4.83;;;3.53;;
20042;SDS011;10182;52.896;6.496;2023-05-03T02:27:47;9.27;;;4.23;;
20042;SDS011;10182;52.896;6.496;2023-05-03T02:32:49;4.63;;;3.93;;
20042;SDS011;10182;52.896;6.496;2023-05-03T02:37:50;5.43;;;3.73;;
20042;SDS011;10182;52.896;6.496;2023-05-03T02:42:53;5.43;;;4.50;;
20042;SDS011;10182;52.896;6.496;2023-05-03T02:47:55;6.97;;;4.60;;
20042;SDS011;10182;52.896;6.496;2023-05-03T02:52:58;8.27;;;4.90;;
20042;SDS011;10182;52.896;6.496;2023-05-03T02:58:01;6.93;;;4.43;;
20042;SDS011;10182;52.896;6.496;2023-05-03T03:03:02;8.33;;;5.33;;
20042;SDS011;10182;52.896;6.496;2023-05-03T03:08:04;7.73;;;4.93;;
20042;SDS011;10182;52.896;6.496;2023-05-03T03:13:07;7.17;;;4.67;;
20042;SDS011;10182;52.896;6.496;2023-05-03T03:18:09;5.13;;;4.63;;
20042;SDS011;10182;52.896;6.496;2023-05-03T03:23:11;8.13;;;5.13;;
20042;SDS011;10182;52.896;6.496;2023-05-03T03:28:14;6.30;;;4.77;;
20042;SDS011;10182;52.896;6.496;2023-05-03T03:33:18;7.97;;;5.97;;
20042;SDS011;10182;52.896;6.496;2023-05-03T03:38:21;7.67;;;5.47;;
20042;SDS011;10182;52.896;6.496;2023-05-03T03:43:24;6.77;;;5.27;;
20042;SDS011;10182;52.896;6.496;2023-05-03T03:48:26;7.77;;;5.70;;
20042;SDS011;10182;52.896;6.496;2023-05-03T03:53:27;8.03;;;5.87;;
20042;SDS011;10182;52.896;6.496;2023-05-03T03:58:30;9.10;;;6.00;;
20042;SDS011;10182;52.896;6.496;2023-05-03T04:03:32;9.90;;;5.57;;
20042;SDS011;10182;52.896;6.496;2023-05-03T04:08:34;8.37;;;6.37;;
20042;SDS011;10182;52.896;6.496;2023-05-03T04:13:37;8.90;;;6.40;;
20042;SDS011;10182;52.896;6.496;2023-05-03T04:18:39;9.57;;;6.57;;
20042;SDS011;10182;52.896;6.496;2023-05-03T04:23:40;15.00;;;6.47;;
20042;SDS011;10182;52.896;6.496;2023-05-03T04:28:44;9.00;;;6.77;;
20042;SDS011;10182;52.896;6.496;2023-05-03T04:33:46;12.37;;;7.07;;
20042;SDS011;10182;52.896;6.496;2023-05-03T04:38:47;7.07;;;6.37;;
20042;SDS011;10182;52.896;6.496;2023-05-03T04:43:50;8.13;;;6.33;;
20042;SDS011;10182;52.896;6.496;2023-05-03T04:48:53;8.90;;;5.87;;
20042;SDS011;10182;52.896;6.496;2023-05-03T04:53:55;8.60;;;6.87;;
20042;SDS011;10182;52.896;6.496;2023-05-03T04:58:58;9.00;;;8.07;;
20042;SDS011;10182;52.896;6.496;2023-05-03T05:04:00;12.80;;;8.20;;
20042;SDS011;10182;52.896;6.496;2023-05-03T05:09:02;10.60;;;7.83;;
20042;SDS011;10182;52.896;6.496;2023-05-03T05:14:06;17.73;;;9.23;;
20042;SDS011;10182;52.896;6.496;2023-05-03T05:19:08;10.90;;;7.63;;
20042;SDS011;10182;52.896;6.496;2023-05-03T05:24:09;9.67;;;7.77;;
20042;SDS011;10182;52.896;6.496;2023-05-03T05:29:12;12.23;;;7.63;;
20042;SDS011;10182;52.896;6.496;2023-05-03T05:34:14;8.90;;;7.40;;
20042;SDS011;10182;52.896;6.496;2023-05-03T05:39:16;12.07;;;7.60;;
20042;SDS011;10182;52.896;6.496;2023-05-03T05:44:19;11.30;;;7.13;;
20042;SDS011;10182;52.896;6.496;2023-05-03T05:49:20;8.53;;;6.80;;
20042;SDS011;10182;52.896;6.496;2023-05-03T05:54:22;10.30;;;6.33;;
20042;SDS011;10182;52.896;6.496;2023-05-03T05:59:25;9.40;;;6.00;;
20042;SDS011;10182;52.896;6.496;2023-05-03T06:04:28;6.17;;;5.57;;
20042;SDS011;10182;52.896;6.496;2023-05-03T06:09:30;7.60;;;5.33;;
20042;SDS011;10182;52.896;6.496;2023-05-03T06:14:33;14.97;;;4.90;;
20042;SDS011;10182;52.896;6.496;2023-05-03T06:19:35;6.17;;;4.13;;
20042;SDS011;10182;52.896;6.496;2023-05-03T06:24:36;6.60;;;4.03;;
20042;SDS011;10182;52.896;6.496;2023-05-03T06:29:39;5.90;;;3.80;;
20042;SDS011;10182;52.896;6.496;2023-05-03T06:34:43;7.97;;;2.80;;
20042;SDS011;10182;52.896;6.496;2023-05-03T06:39:45;4.47;;;2.40;;
20042;SDS011;10182;52.896;6.496;2023-05-03T06:44:48;5.67;;;2.20;;
20042;SDS011;10182;52.896;6.496;2023-05-03T06:49:50;3.30;;;1.53;;
20042;SDS011;10182;52.896;6.496;2023-05-03T06:54:51;2.17;;;1.40;;
20042;SDS011;10182;52.896;6.496;2023-05-03T06:59:54;4.00;;;1.50;;
20042;SDS011;10182;52.896;6.496;2023-05-03T07:04:56;5.13;;;1.50;;
20042;SDS011;10182;52.896;6.496;2023-05-03T07:09:58;4.20;;;1.60;;
20042;SDS011;10182;52.896;6.496;2023-05-03T07:15:01;3.43;;;1.73;;
20042;SDS011;10182;52.896;6.496;2023-05-03T07:20:03;2.53;;;1.30;;
20042;SDS011;10182;52.896;6.496;2023-05-03T07:25:06;1.63;;;1.40;;
20042;SDS011;10182;52.896;6.496;2023-05-03T07:30:10;2.23;;;1.27;;
20042;SDS011;10182;52.896;6.496;2023-05-03T07:35:12;3.87;;;1.20;;
20042;SDS011;10182;52.896;6.496;2023-05-03T07:40:15;3.87;;;1.40;;
20042;SDS011;10182;52.896;6.496;2023-05-03T07:45:19;3.27;;;1.37;;
20042;SDS011;10182;52.896;6.496;2023-05-03T07:50:21;1.37;;;0.80;;
20042;SDS011;10182;52.896;6.496;2023-05-03T07:55:23;2.97;;;1.40;;
20042;SDS011;10182;52.896;6.496;2023-05-03T08:00:27;4.53;;;1.40;;
20042;SDS011;10182;52.896;6.496;2023-05-03T08:05:28;3.67;;;1.80;;
20042;SDS011;10182;52.896;6.496;2023-05-03T08:10:30;3.93;;;1.30;;
20042;SDS011;10182;52.896;6.496;2023-05-03T08:15:38;4.77;;;1.50;;
20042;SDS011;10182;52.896;6.496;2023-05-03T08:20:40;5.63;;;1.50;;
20042;SDS011;10182;52.896;6.496;2023-05-03T08:25:42;2.73;;;1.40;;
20042;SDS011;10182;52.896;6.496;2023-05-03T08:30:46;6.17;;;1.60;;
20042;SDS011;10182;52.896;6.496;2023-05-03T08:35:48;7.33;;;2.10;;
20042;SDS011;10182;52.896;6.496;2023-05-03T08:40:50;6.90;;;1.70;;
20042;SDS011;10182;52.896;6.496;2023-05-03T08:45:56;3.30;;;1.60;;
20042;SDS011;10182;52.896;6.496;2023-05-03T08:50:58;3.43;;;1.90;;
20042;SDS011;10182;52.896;6.496;2023-05-03T08:56:06;4.10;;;2.03;;
20042;SDS011;10182;52.896;6.496;2023-05-03T09:01:10;3.30;;;2.60;;
20042;SDS011;10182;52.896;6.496;2023-05-03T09:06:17;3.70;;;2.10;;
20042;SDS011;10182;52.896;6.496;2023-05-03T09:11:21;4.60;;;1.80;;
20042;SDS011;10182;52.896;6.496;2023-05-03T09:16:25;3.00;;;1.80;;
20042;SDS011;10182;52.896;6.496;2023-05-03T09:21:28;7.53;;;2.57;;
20042;SDS011;10182;52.896;6.496;2023-05-03T09:26:31;4.10;;;2.50;;
20042;SDS011;10182;52.896;6.496;2023-05-03T09:31:35;4.17;;;2.03;;
20042;SDS011;10182;52.896;6.496;2023-05-03T09:36:43;6.00;;;1.90;;
20042;SDS011;10182;52.896;6.496;2023-05-03T09:41:47;5.50;;;1.90;;
20042;SDS011;10182;52.896;6.496;2023-05-03T09:47:03;4.70;;;2.00;;
20042;SDS011;10182;52.896;6.496;2023-05-03T09:52:06;4.27;;;2.00;;
20042;SDS011;10182;52.896;6.496;2023-05-03T09:57:08;5.80;;;2.30;;
20042;SDS011;10182;52.896;6.496;2023-05-03T10:02:12;3.70;;;2.30;;
20042;SDS011;10182;52.896;6.496;2023-05-03T10:07:16;2.93;;;2.17;;
20042;SDS011;10182;52.896;6.496;2023-05-03T10:12:18;2.83;;;2.13;;
20042;SDS011;10182;52.896;6.496;2023-05-03T10:17:23;4.77;;;2.27;;
20042;SDS011;10182;52.896;6.496;2023-05-03T10:22:30;2.63;;;2.07;;
20042;SDS011;10182;52.896;6.496;2023-05-03T10:27:36;5.07;;;2.67;;
20042;SDS011;10182;52.896;6.496;2023-05-03T10:32:43;3.00;;;2.37;;
20042;SDS011;10182;52.896;6.496;2023-05-03T10:37:47;7.10;;;2.70;;
20042;SDS011;10182;52.896;6.496;2023-05-03T10:42:50;4.47;;;2.93;;
20042;SDS011;10182;52.896;6.496;2023-05-03T10:53:35;6.23;;;3.17;;
20042;SDS011;10182;52.896;6.496;2023-05-03T10:58:40;6.70;;;3.10;;
20042;SDS011;10182;52.896;6.496;2023-05-03T11:03:47;3.83;;;2.87;;
20042;SDS011;10182;52.896;6.496;2023-05-03T11:08:52;3.83;;;3.20;;
20042;SDS011;10182;52.896;6.496;2023-05-03T11:13:54;5.23;;;2.60;;
20042;SDS011;10182;52.896;6.496;2023-05-03T11:18:57;6.43;;;3.50;;
20042;SDS011;10182;52.896;6.496;2023-05-03T11:24:00;5.83;;;2.60;;
20042;SDS011;10182;52.896;6.496;2023-05-03T11:29:02;3.10;;;2.83;;
20042;SDS011;10182;52.896;6.496;2023-05-03T11:34:05;3.43;;;2.40;;
20042;SDS011;10182;52.896;6.496;2023-05-03T11:39:07;4.67;;;2.97;;
20042;SDS011;10182;52.896;6.496;2023-05-03T11:44:09;3.00;;;2.80;;
20042;SDS011;10182;52.896;6.496;2023-05-03T11:49:17;4.27;;;2.93;;
20042;SDS011;10182;52.896;6.496;2023-05-03T11:54:18;4.73;;;2.80;;
20042;SDS011;10182;52.896;6.496;2023-05-03T11:59:32;7.13;;;3.30;;
20042;SDS011;10182;52.896;6.496;2023-05-03T12:04:36;7.43;;;3.40;;
20042;SDS011;10182;52.896;6.496;2023-05-03T12:09:41;5.53;;;3.10;;
20042;SDS011;10182;52.896;6.496;2023-05-03T12:14:56;3.70;;;2.87;;
20042;SDS011;10182;52.896;6.496;2023-05-03T12:20:13;6.27;;;3.13;;
20042;SDS011;10182;52.896;6.496;2023-05-03T12:25:16;5.40;;;3.10;;
20042;SDS011;10182;52.896;6.496;2023-05-03T12:30:18;5.23;;;2.50;;
20042;SDS011;10182;52.896;6.496;2023-05-03T12:35:22;5.07;;;2.60;;
20042;SDS011;10182;52.896;6.496;2023-05-03T12:40:24;3.10;;;2.73;;
20042;SDS011;10182;52.896;6.496;2023-05-03T12:45:27;2.80;;;2.60;;
20042;SDS011;10182;52.896;6.496;2023-05-03T12:50:32;5.00;;;2.37;;
20042;SDS011;10182;52.896;6.496;2023-05-03T12:55:34;3.20;;;2.00;;
20042;SDS011;10182;52.896;6.496;2023-05-03T13:00:35;3.63;;;2.37;;
20042;SDS011;10182;52.896;6.496;2023-05-03T13:05:38;2.67;;;2.33;;
20042;SDS011;10182;52.896;6.496;2023-05-03T13:10:40;4.63;;;3.00;;
20042;SDS011;10182;52.896;6.496;2023-05-03T13:15:42;5.00;;;2.70;;
20042;SDS011;10182;52.896;6.496;2023-05-03T13:20:47;4.40;;;3.07;;
20042;SDS011;10182;52.896;6.496;2023-05-03T13:25:50;4.97;;;2.53;;
20042;SDS011;10182;52.896;6.496;2023-05-03T13:30:53;4.50;;;3.10;;
20042;SDS011;10182;52.896;6.496;2023-05-03T13:35:56;6.27;;;2.87;;
20042;SDS011;10182;52.896;6.496;2023-05-03T13:40:58;6.30;;;2.87;;
20042;SDS011;10182;52.896;6.496;2023-05-03T13:46:00;5.10;;;2.50;;
20042;SDS011;10182;52.896;6.496;2023-05-03T13:51:06;5.80;;;2.80;;
20042;SDS011;10182;52.896;6.496;2023-05-03T13:56:09;4.30;;;2.50;;
20042;SDS011;10182;52.896;6.496;2023-05-03T14:01:10;4.73;;;2.60;;
20042;SDS011;10182;52.896;6.496;2023-05-03T14:06:14;3.70;;;2.60;;
20042;SDS011;10182;52.896;6.496;2023-05-03T14:11:16;6.17;;;3.30;;
20042;SDS011;10182;52.896;6.496;2023-05-03T14:16:21;4.77;;;3.17;;
20042;SDS011;10182;52.896;6.496;2023-05-03T14:21:25;8.10;;;3.37;;
20042;SDS011;10182;52.896;6.496;2023-05-03T14:26:30;4.13;;;3.27;;
20042;SDS011;10182;52.896;6.496;2023-05-03T14:31:33;4.73;;;2.93;;
20042;SDS011;10182;52.896;6.496;2023-05-03T14:36:36;4.07;;;2.93;;
20042;SDS011;10182;52.896;6.496;2023-05-03T14:41:42;5.73;;;3.20;;
20042;SDS011;10182;52.896;6.496;2023-05-03T14:46:44;5.30;;;3.40;;
20042;SDS011;10182;52.896;6.496;2023-05-03T14:51:47;6.43;;;2.93;;
20042;SDS011;10182;52.896;6.496;2023-05-03T14:56:49;4.27;;;3.27;;
20042;SDS011;10182;52.896;6.496;2023-05-03T15:01:51;9.33;;;4.17;;
20042;SDS011;10182;52.896;6.496;2023-05-03T15:06:55;4.17;;;3.77;;
20042;SDS011;10182;52.896;6.496;2023-05-03T15:12:00;5.50;;;3.20;;
20042;SDS011;10182;52.896;6.496;2023-05-03T15:17:02;5.53;;;3.50;;
20042;SDS011;10182;52.896;6.496;2023-05-03T15:22:06;5.77;;;3.30;;
20042;SDS011;10182;52.896;6.496;2023-05-03T15:27:07;5.93;;;3.60;;
20042;SDS011;10182;52.896;6.496;2023-05-03T15:32:09;4.40;;;3.40;;
20042;SDS011;10182;52.896;6.496;2023-05-03T15:37:12;4.57;;;3.83;;
20042;SDS011;10182;52.896;6.496;2023-05-03T15:42:14;5.00;;;4.03;;
20042;SDS011;10182;52.896;6.496;2023-05-03T15:47:15;7.53;;;3.93;;
20042;SDS011;10182;52.896;6.496;2023-05-03T15:52:18;7.83;;;4.07;;
20042;SDS011;10182;52.896;6.496;2023-05-03T15:57:22;6.73;;;3.90;;
20042;SDS011;10182;52.896;6.496;2023-05-03T16:02:23;4.60;;;4.00;;
20042;SDS011;10182;52.896;6.496;2023-05-03T16:07:27;8.40;;;4.20;;
20042;SDS011;10182;52.896;6.496;2023-05-03T16:12:29;5.23;;;4.07;;
20042;SDS011;10182;52.896;6.496;2023-05-03T16:23:47;4.10;;;3.70;;
20042;SDS011;10182;52.896;6.496;2023-05-03T16:28:49;7.70;;;3.90;;
20042;SDS011;10182;52.896;6.496;2023-05-03T16:33:51;5.70;;;3.97;;
20042;SDS011;10182;52.896;6.496;2023-05-03T16:38:54;5.13;;;3.70;;
20042;SDS011;10182;52.896;6.496;2023-05-03T16:43:56;8.43;;;3.70;;
20042;SDS011;10182;52.896;6.496;2023-05-03T16:48:57;6.27;;;4.13;;
20042;SDS011;10182;52.896;6.496;2023-05-03T16:54:00;4.77;;;3.60;;
20042;SDS011;10182;52.896;6.496;2023-05-03T16:59:02;7.43;;;3.23;;
20042;SDS011;10182;52.896;6.496;2023-05-03T17:04:04;5.17;;;4.13;;
20042;SDS011;10182;52.896;6.496;2023-05-03T17:09:07;6.73;;;3.87;;
20042;SDS011;10182;52.896;6.496;2023-05-03T17:14:10;4.43;;;3.47;;
20042;SDS011;10182;52.896;6.496;2023-05-03T17:19:12;6.97;;;3.50;;
20042;SDS011;10182;52.896;6.496;2023-05-03T17:24:15;6.40;;;4.00;;
20042;SDS011;10182;52.896;6.496;2023-05-03T17:29:17;8.17;;;4.40;;
20042;SDS011;10182;52.896;6.496;2023-05-03T17:34:18;6.90;;;4.20;;
20042;SDS011;10182;52.896;6.496;2023-05-03T17:39:22;5.30;;;3.90;;
20042;SDS011;10182;52.896;6.496;2023-05-03T17:44:24;4.97;;;4.50;;
20042;SDS011;10182;52.896;6.496;2023-05-03T17:49:26;6.03;;;4.00;;
20042;SDS011;10182;52.896;6.496;2023-05-03T17:54:29;9.67;;;4.33;;
20042;SDS011;10182;52.896;6.496;2023-05-03T17:59:31;7.20;;;4.27;;
20042;SDS011;10182;52.896;6.496;2023-05-03T18:04:33;10.17;;;4.43;;
20042;SDS011;10182;52.896;6.496;2023-05-03T18:09:36;9.63;;;4.77;;
20042;SDS011;10182;52.896;6.496;2023-05-03T18:14:38;5.10;;;3.57;;
20042;SDS011;10182;52.896;6.496;2023-05-03T18:19:42;9.67;;;3.47;;
20042;SDS011;10182;52.896;6.496;2023-05-03T18:24:45;6.97;;;3.80;;
20042;SDS011;10182;52.896;6.496;2023-05-03T18:29:47;9.17;;;3.80;;
20042;SDS011;10182;52.896;6.496;2023-05-03T18:34:48;9.60;;;4.30;;
20042;SDS011;10182;52.896;6.496;2023-05-03T18:39:51;4.93;;;3.53;;
20042;SDS011;10182;52.896;6.496;2023-05-03T18:44:53;4.03;;;3.20;;
20042;SDS011;10182;52.896;6.496;2023-05-03T18:49:55;5.27;;;3.30;;
20042;SDS011;10182;52.896;6.496;2023-05-03T19:01:14;5.80;;;2.90;;
20042;SDS011;10182;52.896;6.496;2023-05-03T19:06:15;4.23;;;3.40;;
20042;SDS011;10182;52.896;6.496;2023-05-03T19:11:17;6.60;;;3.27;;
20042;SDS011;10182;52.896;6.496;2023-05-03T19:16:20;7.73;;;3.83;;
20042;SDS011;10182;52.896;6.496;2023-05-03T19:21:22;7.80;;;4.73;;
20042;SDS011;10182;52.896;6.496;2023-05-03T19:26:24;8.80;;;4.57;;
20042;SDS011;10182;52.896;6.496;2023-05-03T19:31:27;6.53;;;4.17;;
20042;SDS011;10182;52.896;6.496;2023-05-03T19:36:29;6.43;;;3.60;;
20042;SDS011;10182;52.896;6.496;2023-05-03T19:41:31;8.37;;;4.33;;
20042;SDS011;10182;52.896;6.496;2023-05-03T19:46:34;7.10;;;4.27;;
20042;SDS011;10182;52.896;6.496;2023-05-03T19:51:38;7.63;;;4.83;;
20042;SDS011;10182;52.896;6.496;2023-05-03T19:56:39;12.20;;;5.63;;
20042;SDS011;10182;52.896;6.496;2023-05-03T20:01:43;7.80;;;5.87;;
20042;SDS011;10182;52.896;6.496;2023-05-03T20:06:44;18.30;;;6.37;;
20042;SDS011;10182;52.896;6.496;2023-05-03T20:11:46;8.67;;;5.80;;
20042;SDS011;10182;52.896;6.496;2023-05-03T20:16:49;9.27;;;6.10;;
20042;SDS011;10182;52.896;6.496;2023-05-03T20:21:51;13.40;;;6.60;;
20042;SDS011;10182;52.896;6.496;2023-05-03T20:26:52;7.40;;;6.70;;
20042;SDS011;10182;52.896;6.496;2023-05-03T20:31:55;9.77;;;6.87;;
20042;SDS011;10182;52.896;6.496;2023-05-03T20:36:57;11.27;;;7.13;;
20042;SDS011;10182;52.896;6.496;2023-05-03T20:42:02;7.60;;;6.83;;
20042;SDS011;10182;52.896;6.496;2023-05-03T20:47:05;9.17;;;7.80;;
20042;SDS011;10182;52.896;6.496;2023-05-03T20:52:07;8.60;;;7.57;;
20042;SDS011;10182;52.896;6.496;2023-05-03T20:57:10;9.70;;;7.13;;
20042;SDS011;10182;52.896;6.496;2023-05-03T21:02:13;10.20;;;7.70;;
20042;SDS011;10182;52.896;6.496;2023-05-03T21:07:15;9.93;;;8.40;;
20042;SDS011;10182;52.896;6.496;2023-05-03T21:12:17;7.93;;;7.13;;
20042;SDS011;10182;52.896;6.496;2023-05-03T21:17:20;8.70;;;7.00;;
20042;SDS011;10182;52.896;6.496;2023-05-03T21:22:22;8.90;;;7.20;;
20042;SDS011;10182;52.896;6.496;2023-05-03T21:27:23;8.50;;;7.13;;
20042;SDS011;10182;52.896;6.496;2023-05-03T21:32:26;14.47;;;7.00;;
20042;SDS011;10182;52.896;6.496;2023-05-03T21:37:28;9.00;;;7.43;;
20042;SDS011;10182;52.896;6.496;2023-05-03T21:42:30;10.57;;;7.30;;
20042;SDS011;10182;52.896;6.496;2023-05-03T21:47:33;8.00;;;6.83;;
20042;SDS011;10182;52.896;6.496;2023-05-03T21:52:35;8.17;;;6.20;;
20042;SDS011;10182;52.896;6.496;2023-05-03T21:57:37;6.93;;;6.03;;
20042;SDS011;10182;52.896;6.496;2023-05-03T22:02:40;10.50;;;6.73;;
20042;SDS011;10182;52.896;6.496;2023-05-03T22:07:41;7.57;;;6.03;;
20042;SDS011;10182;52.896;6.496;2023-05-03T22:12:43;9.83;;;5.63;;
20042;SDS011;10182;52.896;6.496;2023-05-03T22:17:46;7.57;;;5.50;;
20042;SDS011;10182;52.896;6.496;2023-05-03T22:22:48;8.70;;;5.77;;
20042;SDS011;10182;52.896;6.496;2023-05-03T22:27:50;10.50;;;5.90;;
20042;SDS011;10182;52.896;6.496;2023-05-03T22:32:53;8.00;;;5.60;;
20042;SDS011;10182;52.896;6.496;2023-05-03T22:37:55;8.97;;;5.50;;
20042;SDS011;10182;52.896;6.496;2023-05-03T22:42:56;6.80;;;5.37;;
20042;SDS011;10182;52.896;6.496;2023-05-03T22:47:59;10.27;;;6.53;;
20042;SDS011;10182;52.896;6.496;2023-05-03T22:53:01;12.30;;;6.33;;
20042;SDS011;10182;52.896;6.496;2023-05-03T22:58:03;8.40;;;5.57;;
20042;SDS011;10182;52.896;6.496;2023-05-03T23:03:06;6.13;;;5.53;;
20042;SDS011;10182;52.896;6.496;2023-05-03T23:08:08;7.87;;;5.33;;
20042;SDS011;10182;52.896;6.496;2023-05-03T23:13:10;11.20;;;5.83;;
20042;SDS011;10182;52.896;6.496;2023-05-03T23:18:13;7.57;;;5.63;;
20042;SDS011;10182;52.896;6.496;2023-05-03T23:23:14;7.60;;;5.67;;
20042;SDS011;10182;52.896;6.496;2023-05-03T23:28:16;7.33;;;6.17;;
20042;SDS011;10182;52.896;6.496;2023-05-03T23:33:19;8.73;;;5.53;;
20042;SDS011;10182;52.896;6.496;2023-05-03T23:38:21;7.13;;;5.20;;
20042;SDS011;10182;52.896;6.496;2023-05-03T23:43:23;7.97;;;5.63;;
20042;SDS011;10182;52.896;6.496;2023-05-03T23:48:26;10.20;;;5.67;;
20042;SDS011;10182;52.896;6.496;2023-05-03T23:53:28;8.17;;;6.00;;
20042;SDS011;10182;52.896;6.496;2023-05-03T23:58:29;9.73;;;6.70;;
